Seaton, Arkansas
Current Conditions -  °F | °C
As of 3:15 PM on Monday 22 Dec 2014 (Local Time) from KSGT Reporting Station
Overcast Overcast  
Wind Chill: 55°   Ceiling: 1600
Heat Index: 55°   Visibility: 9mi
Dew Point: 52°   Wind: 12mph
Humidity: 88%   Direction: 160°SSE
Pressure: 29.59"   Gusts: NA
Location:  34.5894°N, 91.9107°W
Report Text: KSGT 222115Z 16010KT 9SM OVC016 13/11 A2959 RMK AO1
Loading
Personal Weather Stations






























Interactive Weather Map New forecast layout! Learn more

10-Day Weather Forecast

Advertisements
Track Severe Weather on mobile